sensor_id;sensor_type;location;lat;lon;timestamp;pressure;altitude;pressure_sealevel;temperature;humidity
72116;BME280;59991;52.140;5.428;2023-03-25T00:00:15;100093.91;;;9.20;79.84
72116;BME280;59991;52.140;5.428;2023-03-25T00:00:48;100094.69;;;9.20;79.99
72116;BME280;59991;52.140;5.428;2023-03-25T00:01:20;100093.91;;;9.20;80.05
72116;BME280;59991;52.140;5.428;2023-03-25T00:01:56;100088.06;;;9.18;80.53
72116;BME280;59991;52.140;5.428;2023-03-25T00:02:27;100091.19;;;9.16;80.01
72116;BME280;59991;52.140;5.428;2023-03-25T00:03:00;100084.56;;;9.17;79.96
72116;BME280;59991;52.140;5.428;2023-03-25T00:03:32;100094.66;;;9.17;80.31
72116;BME280;59991;52.140;5.428;2023-03-25T00:04:04;100097.78;;;9.19;80.22
72116;BME280;59991;52.140;5.428;2023-03-25T00:04:35;100104.38;;;9.18;79.85
72116;BME280;59991;52.140;5.428;2023-03-25T00:05:10;100099.34;;;9.20;80.38
72116;BME280;59991;52.140;5.428;2023-03-25T00:05:42;100096.22;;;9.18;80.27
72116;BME280;59991;52.140;5.428;2023-03-25T00:06:14;100104.78;;;9.20;80.34
72116;BME280;59991;52.140;5.428;2023-03-25T00:06:46;100101.66;;;9.18;80.47
72116;BME280;59991;52.140;5.428;2023-03-25T00:07:21;100093.50;;;9.18;79.91
72116;BME280;59991;52.140;5.428;2023-03-25T00:07:53;100092.34;;;9.19;80.59
72116;BME280;59991;52.140;5.428;2023-03-25T00:08:25;100108.28;;;9.17;80.81
72116;BME280;59991;52.140;5.428;2023-03-25T00:08:57;100100.13;;;9.17;80.26
72116;BME280;59991;52.140;5.428;2023-03-25T00:09:28;100102.84;;;9.17;80.49
72116;BME280;59991;52.140;5.428;2023-03-25T00:10:00;100104.00;;;9.16;80.47
72116;BME280;59991;52.140;5.428;2023-03-25T00:10:31;100093.50;;;9.14;80.80
72116;BME280;59991;52.140;5.428;2023-03-25T00:11:03;100091.56;;;9.15;80.23
72116;BME280;59991;52.140;5.428;2023-03-25T00:11:54;100103.63;;;9.17;80.76
72116;BME280;59991;52.140;5.428;2023-03-25T00:12:25;100098.16;;;9.17;80.79
72116;BME280;59991;52.140;5.428;2023-03-25T00:12:58;100091.56;;;9.15;80.52
72116;BME280;59991;52.140;5.428;2023-03-25T00:13:35;100104.78;;;9.16;80.54
72116;BME280;59991;52.140;5.428;2023-03-25T00:14:06;100098.94;;;9.14;80.68
72116;BME280;59991;52.140;5.428;2023-03-25T00:14:38;100107.09;;;9.14;80.80
72116;BME280;59991;52.140;5.428;2023-03-25T00:15:11;100110.59;;;9.15;80.54
72116;BME280;59991;52.140;5.428;2023-03-25T00:15:43;100100.88;;;9.14;80.49
72116;BME280;59991;52.140;5.428;2023-03-25T00:16:17;100114.88;;;9.16;80.61
72116;BME280;59991;52.140;5.428;2023-03-25T00:16:49;100094.66;;;9.13;80.60
72116;BME280;59991;52.140;5.428;2023-03-25T00:17:24;100104.38;;;9.14;80.51
72116;BME280;59991;52.140;5.428;2023-03-25T00:18:01;100102.44;;;9.15;80.96
72116;BME280;59991;52.140;5.428;2023-03-25T00:18:33;100093.91;;;9.16;80.84
72116;BME280;59991;52.140;5.428;2023-03-25T00:19:05;100104.00;;;9.16;80.55
72116;BME280;59991;52.140;5.428;2023-03-25T00:19:36;100100.50;;;9.15;80.76
72116;BME280;59991;52.140;5.428;2023-03-25T00:20:08;100097.78;;;9.15;80.73
72116;BME280;59991;52.140;5.428;2023-03-25T00:20:40;100093.88;;;9.13;80.80
72116;BME280;59991;52.140;5.428;2023-03-25T00:21:12;100098.53;;;9.12;80.68
72116;BME280;59991;52.140;5.428;2023-03-25T00:21:44;100083.75;;;9.10;81.11
72116;BME280;59991;52.140;5.428;2023-03-25T00:22:17;100098.94;;;9.14;81.05
72116;BME280;59991;52.140;5.428;2023-03-25T00:22:48;100103.19;;;9.12;81.00
72116;BME280;59991;52.140;5.428;2023-03-25T00:23:21;100089.97;;;9.10;80.40
72116;BME280;59991;52.140;5.428;2023-03-25T00:23:52;100098.53;;;9.12;80.75
72116;BME280;59991;52.140;5.428;2023-03-25T00:24:24;100089.97;;;9.10;80.81
72116;BME280;59991;52.140;5.428;2023-03-25T00:24:55;100094.25;;;9.11;80.83
72116;BME280;59991;52.140;5.428;2023-03-25T00:25:27;100088.81;;;9.11;80.51
72116;BME280;59991;52.140;5.428;2023-03-25T00:25:59;100091.53;;;9.11;80.94
72116;BME280;59991;52.140;5.428;2023-03-25T00:26:30;100101.66;;;9.11;80.93
72116;BME280;59991;52.140;5.428;2023-03-25T00:27:02;100101.25;;;9.12;80.64
72116;BME280;59991;52.140;5.428;2023-03-25T00:27:34;100103.97;;;9.12;80.92
72116;BME280;59991;52.140;5.428;2023-03-25T00:28:07;100085.72;;;9.13;80.88
72116;BME280;59991;52.140;5.428;2023-03-25T00:28:39;100095.03;;;9.12;81.32
72116;BME280;59991;52.140;5.428;2023-03-25T00:29:11;100095.03;;;9.12;80.73
72116;BME280;59991;52.140;5.428;2023-03-25T00:29:44;100096.59;;;9.09;81.32
72116;BME280;59991;52.140;5.428;2023-03-25T00:30:17;100092.31;;;9.12;81.34
72116;BME280;59991;52.140;5.428;2023-03-25T00:30:49;100099.69;;;9.08;80.96
72116;BME280;59991;52.140;5.428;2023-03-25T00:31:22;100093.47;;;9.11;80.56
72116;BME280;59991;52.140;5.428;2023-03-25T00:31:54;100091.94;;;9.10;80.83
72116;BME280;59991;52.140;5.428;2023-03-25T00:32:25;100093.09;;;9.09;80.91
72116;BME280;59991;52.140;5.428;2023-03-25T00:32:59;100088.44;;;9.09;81.09
72116;BME280;59991;52.140;5.428;2023-03-25T00:33:32;100087.25;;;9.07;80.88
72116;BME280;59991;52.140;5.428;2023-03-25T00:34:03;100093.88;;;9.09;81.12
72116;BME280;59991;52.140;5.428;2023-03-25T00:34:35;100094.63;;;9.06;80.82
72116;BME280;59991;52.140;5.428;2023-03-25T00:35:12;100082.59;;;9.07;80.87
72116;BME280;59991;52.140;5.428;2023-03-25T00:35:44;100089.97;;;9.07;81.14
72116;BME280;59991;52.140;5.428;2023-03-25T00:36:15;100095.03;;;9.08;81.41
72116;BME280;59991;52.140;5.428;2023-03-25T00:36:48;100087.66;;;9.09;81.29
72116;BME280;59991;52.140;5.428;2023-03-25T00:37:19;100091.53;;;9.08;81.41
72116;BME280;59991;52.140;5.428;2023-03-25T00:37:52;100093.47;;;9.07;81.20
72116;BME280;59991;52.140;5.428;2023-03-25T00:38:29;100096.19;;;9.07;81.00
72116;BME280;59991;52.140;5.428;2023-03-25T00:39:06;100089.97;;;9.07;81.21
72116;BME280;59991;52.140;5.428;2023-03-25T00:39:38;100091.53;;;9.04;81.03
72116;BME280;59991;52.140;5.428;2023-03-25T00:40:10;100100.47;;;9.08;81.01
72116;BME280;59991;52.140;5.428;2023-03-25T00:40:41;100100.06;;;9.06;81.23
72116;BME280;59991;52.140;5.428;2023-03-25T00:41:16;100099.69;;;9.08;81.19
72116;BME280;59991;52.140;5.428;2023-03-25T00:41:47;100097.72;;;9.05;81.12
72116;BME280;59991;52.140;5.428;2023-03-25T00:42:19;100097.34;;;9.06;81.24
72116;BME280;59991;52.140;5.428;2023-03-25T00:42:56;100107.84;;;9.08;81.31
72116;BME280;59991;52.140;5.428;2023-03-25T00:43:28;100100.47;;;9.08;81.15
72116;BME280;59991;52.140;5.428;2023-03-25T00:43:59;100089.97;;;9.07;81.39
72116;BME280;59991;52.140;5.428;2023-03-25T00:44:31;100093.84;;;9.06;81.23
72116;BME280;59991;52.140;5.428;2023-03-25T00:45:03;100107.06;;;9.07;81.47
72116;BME280;59991;52.140;5.428;2023-03-25T00:45:34;100089.56;;;9.05;81.07
72116;BME280;59991;52.140;5.428;2023-03-25T00:46:06;100102.41;;;9.04;81.03
72116;BME280;59991;52.140;5.428;2023-03-25T00:46:38;100097.34;;;9.06;81.08
72116;BME280;59991;52.140;5.428;2023-03-25T00:47:09;100093.88;;;9.02;81.26
72116;BME280;59991;52.140;5.428;2023-03-25T00:47:47;100097.72;;;9.05;81.17
72116;BME280;59991;52.140;5.428;2023-03-25T00:48:19;100095.44;;;9.03;81.21
72116;BME280;59991;52.140;5.428;2023-03-25T00:48:50;100095.44;;;9.03;81.57
72116;BME280;59991;52.140;5.428;2023-03-25T00:49:22;100101.66;;;9.04;81.24
72116;BME280;59991;52.140;5.428;2023-03-25T00:49:55;100104.34;;;9.07;81.62
72116;BME280;59991;52.140;5.428;2023-03-25T00:50:26;100099.31;;;9.02;81.52
72116;BME280;59991;52.140;5.428;2023-03-25T00:50:59;100095.81;;;9.02;81.30
72116;BME280;59991;52.140;5.428;2023-03-25T00:51:37;100097.72;;;9.05;81.11
72116;BME280;59991;52.140;5.428;2023-03-25T00:52:24;100103.16;;;9.05;81.31
72116;BME280;59991;52.140;5.428;2023-03-25T00:52:55;100093.88;;;9.02;81.29
72116;BME280;59991;52.140;5.428;2023-03-25T00:53:27;100099.31;;;9.02;81.38
72116;BME280;59991;52.140;5.428;2023-03-25T00:53:59;100093.88;;;9.02;81.78
72116;BME280;59991;52.140;5.428;2023-03-25T00:54:30;100100.09;;;9.03;81.36
72116;BME280;59991;52.140;5.428;2023-03-25T00:55:05;100080.28;;;9.02;81.47
72116;BME280;59991;52.140;5.428;2023-03-25T00:55:36;100090.75;;;9.04;80.97
72116;BME280;59991;52.140;5.428;2023-03-25T00:56:28;100103.94;;;9.05;81.15
72116;BME280;59991;52.140;5.428;2023-03-25T00:56:59;100098.50;;;9.05;81.33
72116;BME280;59991;52.140;5.428;2023-03-25T00:57:31;100105.50;;;9.06;80.76
72116;BME280;59991;52.140;5.428;2023-03-25T00:58:02;100103.16;;;9.05;81.19
72116;BME280;59991;52.140;5.428;2023-03-25T00:58:35;100106.66;;;9.05;81.24
72116;BME280;59991;52.140;5.428;2023-03-25T00:59:06;100100.09;;;9.03;81.02
72116;BME280;59991;52.140;5.428;2023-03-25T00:59:38;100098.53;;;9.02;81.17
72116;BME280;59991;52.140;5.428;2023-03-25T01:00:12;100107.44;;;9.06;80.95
72116;BME280;59991;52.140;5.428;2023-03-25T01:00:44;100107.84;;;9.04;81.06
72116;BME280;59991;52.140;5.428;2023-03-25T01:01:19;100105.88;;;9.05;81.19
72116;BME280;59991;52.140;5.428;2023-03-25T01:01:53;100107.84;;;9.04;81.17
72116;BME280;59991;52.140;5.428;2023-03-25T01:02:27;100106.66;;;9.05;81.24
72116;BME280;59991;52.140;5.428;2023-03-25T01:02:58;100096.19;;;9.04;81.08
72116;BME280;59991;52.140;5.428;2023-03-25T01:03:31;100112.53;;;9.04;81.06
72116;BME280;59991;52.140;5.428;2023-03-25T01:04:07;100099.31;;;9.02;80.80
72116;BME280;59991;52.140;5.428;2023-03-25T01:04:43;100101.66;;;9.04;81.04
72116;BME280;59991;52.140;5.428;2023-03-25T01:05:16;100096.59;;;9.02;80.75
72116;BME280;59991;52.140;5.428;2023-03-25T01:05:47;100092.31;;;9.01;80.95
72116;BME280;59991;52.140;5.428;2023-03-25T01:06:20;100103.59;;;9.03;80.67
72116;BME280;59991;52.140;5.428;2023-03-25T01:06:51;100099.69;;;9.00;80.32
72116;BME280;59991;52.140;5.428;2023-03-25T01:07:23;100100.09;;;9.03;80.72
72116;BME280;59991;52.140;5.428;2023-03-25T01:07:55;100106.31;;;9.03;80.85
72116;BME280;59991;52.140;5.428;2023-03-25T01:08:27;100103.97;;;9.02;80.88
72116;BME280;59991;52.140;5.428;2023-03-25T01:09:02;100092.31;;;9.01;80.66
72116;BME280;59991;52.140;5.428;2023-03-25T01:09:34;100091.94;;;9.03;80.70
72116;BME280;59991;52.140;5.428;2023-03-25T01:10:06;100100.09;;;9.03;80.84
72116;BME280;59991;52.140;5.428;2023-03-25T01:10:38;100098.53;;;9.02;80.42
72116;BME280;59991;52.140;5.428;2023-03-25T01:11:20;100097.75;;;9.01;80.13
72116;BME280;59991;52.140;5.428;2023-03-25T01:11:52;100103.97;;;9.02;80.14
72116;BME280;59991;52.140;5.428;2023-03-25T01:12:24;100109.03;;;9.03;80.54
72116;BME280;59991;52.140;5.428;2023-03-25T01:12:57;100098.16;;;9.03;80.37
72116;BME280;59991;52.140;5.428;2023-03-25T01:13:28;100086.84;;;8.97;80.05
72116;BME280;59991;52.140;5.428;2023-03-25T01:14:00;100096.97;;;9.00;80.66
72116;BME280;59991;52.140;5.428;2023-03-25T01:14:32;100090.34;;;8.98;80.68
72116;BME280;59991;52.140;5.428;2023-03-25T01:15:04;100093.88;;;9.02;80.40
72116;BME280;59991;52.140;5.428;2023-03-25T01:15:38;100091.53;;;9.00;80.48
72116;BME280;59991;52.140;5.428;2023-03-25T01:16:10;100103.19;;;9.01;80.22
72116;BME280;59991;52.140;5.428;2023-03-25T01:16:42;100107.47;;;9.02;80.20
72116;BME280;59991;52.140;5.428;2023-03-25T01:17:14;100089.19;;;8.99;80.56
72116;BME280;59991;52.140;5.428;2023-03-25T01:17:45;100097.75;;;9.01;80.31
72116;BME280;59991;52.140;5.428;2023-03-25T01:18:17;100093.84;;;8.98;80.26
72116;BME280;59991;52.140;5.428;2023-03-25T01:18:48;100096.56;;;8.98;80.15
72116;BME280;59991;52.140;5.428;2023-03-25T01:19:20;100097.38;;;9.03;79.99
72116;BME280;59991;52.140;5.428;2023-03-25T01:19:53;100100.47;;;9.01;79.87
72116;BME280;59991;52.140;5.428;2023-03-25T01:20:24;100093.84;;;8.98;80.35
72116;BME280;59991;52.140;5.428;2023-03-25T01:20:57;100093.84;;;8.98;80.10
72116;BME280;59991;52.140;5.428;2023-03-25T01:21:28;100103.19;;;9.01;80.08
72116;BME280;59991;52.140;5.428;2023-03-25T01:22:00;100090.38;;;9.02;80.19
72116;BME280;59991;52.140;5.428;2023-03-25T01:22:31;100095.03;;;9.01;79.66
72116;BME280;59991;52.140;5.428;2023-03-25T01:23:02;100095.03;;;9.01;79.73
72116;BME280;59991;52.140;5.428;2023-03-25T01:23:34;100091.53;;;9.00;80.15
72116;BME280;59991;52.140;5.428;2023-03-25T01:24:06;100092.31;;;9.01;80.02
72116;BME280;59991;52.140;5.428;2023-03-25T01:24:38;100095.41;;;8.99;80.34
72116;BME280;59991;52.140;5.428;2023-03-25T01:25:10;100095.03;;;9.01;80.19
72116;BME280;59991;52.140;5.428;2023-03-25T01:25:42;100100.47;;;9.01;80.54
72116;BME280;59991;52.140;5.428;2023-03-25T01:26:14;100084.13;;;8.97;80.32
72116;BME280;59991;52.140;5.428;2023-03-25T01:26:46;100092.28;;;8.97;80.20
72116;BME280;59991;52.140;5.428;2023-03-25T01:27:18;100098.50;;;8.98;80.29
72116;BME280;59991;52.140;5.428;2023-03-25T01:27:50;100098.50;;;8.98;80.08
72116;BME280;59991;52.140;5.428;2023-03-25T01:28:21;100081.03;;;8.95;80.17
72116;BME280;59991;52.140;5.428;2023-03-25T01:28:53;100089.19;;;8.95;80.29
72116;BME280;59991;52.140;5.428;2023-03-25T01:29:24;100087.63;;;8.98;80.50
72116;BME280;59991;52.140;5.428;2023-03-25T01:29:56;100085.28;;;8.96;80.11
72116;BME280;59991;52.140;5.428;2023-03-25T01:30:28;100091.91;;;8.95;80.49
72116;BME280;59991;52.140;5.428;2023-03-25T01:31:04;100089.19;;;8.95;80.21
72116;BME280;59991;52.140;5.428;2023-03-25T01:31:36;100097.72;;;8.97;80.03
72116;BME280;59991;52.140;5.428;2023-03-25T01:32:09;100088.41;;;8.98;79.98
72116;BME280;59991;52.140;5.428;2023-03-25T01:32:40;100102.78;;;8.99;80.30
72116;BME280;59991;52.140;5.428;2023-03-25T01:33:12;100087.25;;;8.99;80.20
72116;BME280;59991;52.140;5.428;2023-03-25T01:33:43;100093.44;;;8.96;80.24
72116;BME280;59991;52.140;5.428;2023-03-25T01:34:15;100090.34;;;8.98;80.79
72116;BME280;59991;52.140;5.428;2023-03-25T01:34:47;100091.91;;;8.95;80.90
72116;BME280;59991;52.140;5.428;2023-03-25T01:35:18;100093.84;;;8.98;81.05
72116;BME280;59991;52.140;5.428;2023-03-25T01:35:50;100086.84;;;8.97;81.37
72116;BME280;59991;52.140;5.428;2023-03-25T01:36:23;100077.91;;;8.97;81.86
72116;BME280;59991;52.140;5.428;2023-03-25T01:36:55;100086.47;;;8.95;82.21
72116;BME280;59991;52.140;5.428;2023-03-25T01:37:26;100075.97;;;8.94;82.65
72116;BME280;59991;52.140;5.428;2023-03-25T01:37:59;100077.50;;;8.91;82.68
72116;BME280;59991;52.140;5.428;2023-03-25T01:38:31;100080.22;;;8.91;83.27
72116;BME280;59991;52.140;5.428;2023-03-25T01:39:03;100082.94;;;8.91;83.21
72116;BME280;59991;52.140;5.428;2023-03-25T01:39:35;100077.50;;;8.88;83.22
72116;BME280;59991;52.140;5.428;2023-03-25T01:40:21;100094.56;;;8.88;82.75
72116;BME280;59991;52.140;5.428;2023-03-25T01:40:53;100085.66;;;8.88;82.79
72116;BME280;59991;52.140;5.428;2023-03-25T01:41:26;100089.13;;;8.88;82.77
72116;BME280;59991;52.140;5.428;2023-03-25T01:42:12;100087.59;;;8.87;82.45
72116;BME280;59991;52.140;5.428;2023-03-25T01:42:44;100088.38;;;8.84;82.88
72116;BME280;59991;52.140;5.428;2023-03-25T01:43:16;100079.44;;;8.87;82.58
72116;BME280;59991;52.140;5.428;2023-03-25T01:44:07;100080.22;;;8.84;82.74
72116;BME280;59991;52.140;5.428;2023-03-25T01:45:17;100086.81;;;8.87;83.47
72116;BME280;59991;52.140;5.428;2023-03-25T01:45:50;100081.38;;;8.83;83.62
72116;BME280;59991;52.140;5.428;2023-03-25T01:46:22;100092.25;;;8.87;83.73
72116;BME280;59991;52.140;5.428;2023-03-25T01:46:54;100084.47;;;8.85;84.17
72116;BME280;59991;52.140;5.428;2023-03-25T01:47:27;100075.94;;;8.83;84.39
72116;BME280;59991;52.140;5.428;2023-03-25T01:48:09;100084.88;;;8.84;84.16
72116;BME280;59991;52.140;5.428;2023-03-25T01:48:43;100083.69;;;8.81;84.29
72116;BME280;59991;52.140;5.428;2023-03-25T01:49:17;100068.94;;;8.79;84.21
72116;BME280;59991;52.140;5.428;2023-03-25T01:49:53;100080.59;;;8.79;84.10
72116;BME280;59991;52.140;5.428;2023-03-25T01:50:26;100076.31;;;8.78;84.49
72116;BME280;59991;52.140;5.428;2023-03-25T01:51:04;100085.63;;;8.77;83.91
72116;BME280;59991;52.140;5.428;2023-03-25T01:51:39;100079.78;;;8.75;84.00
72116;BME280;59991;52.140;5.428;2023-03-25T01:52:15;100084.81;;;8.73;84.16
72116;BME280;59991;52.140;5.428;2023-03-25T01:52:49;100074.75;;;8.77;84.28
72116;BME280;59991;52.140;5.428;2023-03-25T01:53:22;100095.34;;;8.78;84.51
72116;BME280;59991;52.140;5.428;2023-03-25T01:53:54;100073.56;;;8.75;84.34
72116;BME280;59991;52.140;5.428;2023-03-25T01:54:26;100074.34;;;8.75;84.75
72116;BME280;59991;52.140;5.428;2023-03-25T01:54:58;100079.78;;;8.75;84.83
72116;BME280;59991;52.140;5.428;2023-03-25T01:55:32;100076.66;;;8.73;84.89
72116;BME280;59991;52.140;5.428;2023-03-25T01:56:05;100076.66;;;8.73;84.84
72116;BME280;59991;52.140;5.428;2023-03-25T01:56:40;100091.03;;;8.74;85.11
72116;BME280;59991;52.140;5.428;2023-03-25T01:57:14;100087.94;;;8.75;84.80
72116;BME280;59991;52.140;5.428;2023-03-25T01:57:49;100078.22;;;8.74;84.70
72116;BME280;59991;52.140;5.428;2023-03-25T01:58:25;100072.38;;;8.72;84.42
72116;BME280;59991;52.140;5.428;2023-03-25T01:59:02;100073.56;;;8.75;84.88
72116;BME280;59991;52.140;5.428;2023-03-25T01:59:36;100079.78;;;8.72;84.41
72116;BME280;59991;52.140;5.428;2023-03-25T02:00:09;100092.22;;;8.76;84.52
72116;BME280;59991;52.140;5.428;2023-03-25T02:00:43;100074.34;;;8.75;84.91
72116;BME280;59991;52.140;5.428;2023-03-25T02:01:17;100087.91;;;8.72;84.67
72116;BME280;59991;52.140;5.428;2023-03-25T02:01:55;100090.66;;;8.75;85.03
72116;BME280;59991;52.140;5.428;2023-03-25T02:02:28;100084.03;;;8.73;85.28
72116;BME280;59991;52.140;5.428;2023-03-25T02:03:06;100077.03;;;8.72;85.75
72116;BME280;59991;52.140;5.428;2023-03-25T02:03:41;100075.88;;;8.73;85.71
72116;BME280;59991;52.140;5.428;2023-03-25T02:04:27;100063.44;;;8.68;85.91
72116;BME280;59991;52.140;5.428;2023-03-25T02:05:04;100077.44;;;8.70;86.30
72116;BME280;59991;52.140;5.428;2023-03-25T02:05:48;100069.28;;;8.70;86.32
72116;BME280;59991;52.140;5.428;2023-03-25T02:06:27;100079.75;;;8.68;86.66
72116;BME280;59991;52.140;5.428;2023-03-25T02:07:02;100077.03;;;8.64;86.83
72116;BME280;59991;52.140;5.428;2023-03-25T02:07:36;100078.19;;;8.67;87.12
72116;BME280;59991;52.140;5.428;2023-03-25T02:08:09;100079.75;;;8.64;87.14
72116;BME280;59991;52.140;5.428;2023-03-25T02:08:41;100078.97;;;8.64;87.24
72116;BME280;59991;52.140;5.428;2023-03-25T02:09:15;100082.06;;;8.62;87.34
72116;BME280;59991;52.140;5.428;2023-03-25T02:09:48;100084.41;;;8.64;87.44
72116;BME280;59991;52.140;5.428;2023-03-25T02:10:20;100083.63;;;8.60;87.27
72116;BME280;59991;52.140;5.428;2023-03-25T02:10:51;100089.06;;;8.63;87.35
72116;BME280;59991;52.140;5.428;2023-03-25T02:11:23;100085.16;;;8.61;87.72
72116;BME280;59991;52.140;5.428;2023-03-25T02:11:59;100090.22;;;8.62;87.58
72116;BME280;59991;52.140;5.428;2023-03-25T02:12:31;100078.19;;;8.60;87.89
72116;BME280;59991;52.140;5.428;2023-03-25T02:13:04;100084.78;;;8.59;87.55
72116;BME280;59991;52.140;5.428;2023-03-25T02:13:38;100082.84;;;8.59;87.65
72116;BME280;59991;52.140;5.428;2023-03-25T02:14:14;100084.00;;;8.58;87.76
72116;BME280;59991;52.140;5.428;2023-03-25T02:14:46;100073.88;;;8.55;87.25
72116;BME280;59991;52.140;5.428;2023-03-25T02:15:18;100079.34;;;8.59;87.54
72116;BME280;59991;52.140;5.428;2023-03-25T02:17:02;100082.06;;;8.59;87.25
72116;BME280;59991;52.140;5.428;2023-03-25T02:17:52;100085.94;;;8.58;87.61
72116;BME280;59991;52.140;5.428;2023-03-25T02:18:37;100084.38;;;8.57;87.19
72116;BME280;59991;52.140;5.428;2023-03-25T02:21:12;100068.47;;;8.59;87.32
72116;BME280;59991;52.140;5.428;2023-03-25T02:22:45;100071.19;;;8.59;87.04
72116;BME280;59991;52.140;5.428;2023-03-25T02:23:39;100075.84;;;8.58;86.74
72116;BME280;59991;52.140;5.428;2023-03-25T02:27:18;100073.88;;;8.55;86.81
72116;BME280;59991;52.140;5.428;2023-03-25T02:28:02;100074.25;;;8.54;87.10
72116;BME280;59991;52.140;5.428;2023-03-25T02:28:51;100079.69;;;8.54;87.41
72116;BME280;59991;52.140;5.428;2023-03-25T02:29:51;100076.97;;;8.54;87.05
72116;BME280;59991;52.140;5.428;2023-03-25T02:30:36;100078.91;;;8.53;87.66
72116;BME280;59991;52.140;5.428;2023-03-25T02:31:25;100072.69;;;8.53;87.66
72116;BME280;59991;52.140;5.428;2023-03-25T02:32:24;100074.25;;;8.50;88.10
72116;BME280;59991;52.140;5.428;2023-03-25T02:33:26;100082.75;;;8.49;88.22
72116;BME280;59991;52.140;5.428;2023-03-25T02:35:00;100080.44;;;8.47;88.71
72116;BME280;59991;52.140;5.428;2023-03-25T02:39:46;100072.66;;;8.42;89.68
72116;BME280;59991;52.140;5.428;2023-03-25T02:40:21;100076.53;;;8.41;89.66
72116;BME280;59991;52.140;5.428;2023-03-25T02:42:05;100069.53;;;8.40;90.46
72116;BME280;59991;52.140;5.428;2023-03-25T02:42:50;100071.88;;;8.38;90.20
72116;BME280;59991;52.140;5.428;2023-03-25T02:43:30;100078.06;;;8.39;90.30
72116;BME280;59991;52.140;5.428;2023-03-25T02:45:23;100082.34;;;8.40;90.24
72116;BME280;59991;52.140;5.428;2023-03-25T02:45:58;100072.25;;;8.37;90.07
72116;BME280;59991;52.140;5.428;2023-03-25T02:46:31;100077.28;;;8.38;90.34
72116;BME280;59991;52.140;5.428;2023-03-25T02:47:07;100073.41;;;8.36;90.32
72116;BME280;59991;52.140;5.428;2023-03-25T02:47:46;100074.19;;;8.36;90.27
72116;BME280;59991;52.140;5.428;2023-03-25T02:48:26;100067.97;;;8.36;90.23
72116;BME280;59991;52.140;5.428;2023-03-25T02:49:17;100067.19;;;8.35;90.76
72116;BME280;59991;52.140;5.428;2023-03-25T02:49:55;100071.47;;;8.36;90.69
72116;BME280;59991;52.140;5.428;2023-03-25T02:50:33;100067.97;;;8.36;90.82
72116;BME280;59991;52.140;5.428;2023-03-25T02:51:11;100066.81;;;8.37;90.44
72116;BME280;59991;52.140;5.428;2023-03-25T02:51:59;100073.41;;;8.36;90.54
72116;BME280;59991;52.140;5.428;2023-03-25T02:52:36;100077.28;;;8.35;90.24
72116;BME280;59991;52.140;5.428;2023-03-25T02:53:16;100076.91;;;8.36;90.64
72116;BME280;59991;52.140;5.428;2023-03-25T02:53:51;100072.25;;;8.37;91.05
72116;BME280;59991;52.140;5.428;2023-03-25T02:54:26;100073.41;;;8.36;90.66
72116;BME280;59991;52.140;5.428;2023-03-25T02:55:01;100063.69;;;8.35;90.22
72116;BME280;59991;52.140;5.428;2023-03-25T02:55:36;100066.41;;;8.35;90.37
72116;BME280;59991;52.140;5.428;2023-03-25T02:56:11;100069.13;;;8.35;91.18
72116;BME280;59991;52.140;5.428;2023-03-25T02:56:45;100076.13;;;8.36;90.79
72116;BME280;59991;52.140;5.428;2023-03-25T02:57:20;100071.44;;;8.32;90.43
72116;BME280;59991;52.140;5.428;2023-03-25T02:57:53;100072.63;;;8.35;90.81
72116;BME280;59991;52.140;5.428;2023-03-25T02:58:29;100074.97;;;8.37;91.18
72116;BME280;59991;52.140;5.428;2023-03-25T02:59:01;100066.41;;;8.35;90.58
72116;BME280;59991;52.140;5.428;2023-03-25T02:59:35;100069.53;;;8.37;90.98
72116;BME280;59991;52.140;5.428;2023-03-25T03:00:10;100077.28;;;8.35;91.20
72116;BME280;59991;52.140;5.428;2023-03-25T03:00:47;100073.00;;;8.34;90.70
72116;BME280;59991;52.140;5.428;2023-03-25T03:01:19;100064.84;;;8.34;90.71
72116;BME280;59991;52.140;5.428;2023-03-25T03:01:55;100067.97;;;8.36;91.04
72116;BME280;59991;52.140;5.428;2023-03-25T03:02:29;100068.75;;;8.36;90.58
72116;BME280;59991;52.140;5.428;2023-03-25T03:03:05;100070.31;;;8.37;90.56
72116;BME280;59991;52.140;5.428;2023-03-25T03:03:37;100069.53;;;8.37;90.37
72116;BME280;59991;52.140;5.428;2023-03-25T03:04:08;100063.28;;;8.32;90.88
72116;BME280;59991;52.140;5.428;2023-03-25T03:04:55;100066.44;;;8.38;91.19
72116;BME280;59991;52.140;5.428;2023-03-25T03:05:35;100065.66;;;8.38;90.43
72116;BME280;59991;52.140;5.428;2023-03-25T03:06:14;100064.09;;;8.37;90.84
72116;BME280;59991;52.140;5.428;2023-03-25T03:06:47;100068.38;;;8.38;90.95
72116;BME280;59991;52.140;5.428;2023-03-25T03:07:33;100062.16;;;8.37;90.85
72116;BME280;59991;52.140;5.428;2023-03-25T03:09:45;100046.63;;;8.34;90.98
72116;BME280;59991;52.140;5.428;2023-03-25T03:10:25;100052.44;;;8.36;91.13
72116;BME280;59991;52.140;5.428;2023-03-25T03:14:26;100052.06;;;8.38;90.93
72116;BME280;59991;52.140;5.428;2023-03-25T03:15:21;100051.69;;;8.39;90.66
72116;BME280;59991;52.140;5.428;2023-03-25T03:16:04;100056.34;;;8.39;91.21
72116;BME280;59991;52.140;5.428;2023-03-25T03:16:48;100061.78;;;8.39;91.86
72116;BME280;59991;52.140;5.428;2023-03-25T03:17:52;100053.63;;;8.39;91.95
72116;BME280;59991;52.140;5.428;2023-03-25T03:18:44;100053.22;;;8.37;91.81
72116;BME280;59991;52.140;5.428;2023-03-25T03:20:43;100050.09;;;8.35;92.18
72116;BME280;59991;52.140;5.428;2023-03-25T03:21:35;100044.66;;;8.35;92.73
72116;BME280;59991;52.140;5.428;2023-03-25T03:23:26;100053.97;;;8.34;92.55
72116;BME280;59991;52.140;5.428;2023-03-25T03:24:06;100060.19;;;8.34;92.16
72116;BME280;59991;52.140;5.428;2023-03-25T03:24:44;100053.97;;;8.34;92.88
72116;BME280;59991;52.140;5.428;2023-03-25T03:25:25;100059.41;;;8.34;92.70
72116;BME280;59991;52.140;5.428;2023-03-25T03:26:22;100049.69;;;8.32;92.38
72116;BME280;59991;52.140;5.428;2023-03-25T03:27:11;100045.00;;;8.29;92.99
72116;BME280;59991;52.140;5.428;2023-03-25T03:27:54;100046.22;;;8.32;93.24
72116;BME280;59991;52.140;5.428;2023-03-25T03:28:43;100048.94;;;8.32;93.03